createdAt,value
2023-02-12T00:08:49.723Z,7
2023-02-12T00:18:51.596Z,7
2023-02-12T00:28:52.678Z,7
2023-02-12T00:38:54.667Z,7
2023-02-12T00:48:56.381Z,7
2023-02-12T00:58:58.177Z,6.9
2023-02-12T01:29:03.139Z,6.8
2023-02-12T01:39:04.418Z,6.8
2023-02-12T01:49:05.769Z,6.8
2023-02-12T01:59:07.791Z,6.8
2023-02-12T02:09:08.937Z,6.8
2023-02-12T02:19:10.346Z,6.8
2023-02-12T02:29:12.290Z,6.7
2023-02-12T02:39:13.513Z,6.7
2023-02-12T02:49:15.333Z,6.6
2023-02-12T02:59:17.338Z,6.6
2023-02-12T03:09:19.085Z,6.6
2023-02-12T03:19:20.704Z,6.5
2023-02-12T03:29:21.874Z,6.5
2023-02-12T03:39:23.500Z,6.5
2023-02-12T03:49:24.996Z,6.5
2023-02-12T04:09:27.693Z,6.5
2023-02-12T04:19:28.800Z,6.5
2023-02-12T04:29:30.589Z,6.5
2023-02-12T04:39:32.290Z,6.5
2023-02-12T04:49:34.185Z,6.5
2023-02-12T04:59:36.098Z,6.4
2023-02-12T05:09:37.430Z,6.4
2023-02-12T05:19:39.036Z,6.4
2023-02-12T05:29:40.292Z,6.4
2023-02-12T05:39:41.840Z,6.4
2023-02-12T05:49:43.855Z,6.4
2023-02-12T05:59:45.812Z,6.4
2023-02-12T06:09:47.233Z,6.4
2023-02-12T06:19:48.316Z,6.4
2023-02-12T06:29:49.815Z,6.3
2023-02-12T06:39:51.840Z,6.4
2023-02-12T06:49:53.517Z,6.4
2023-02-12T06:59:54.594Z,6.3
2023-02-12T07:09:56.560Z,6.4
2023-02-12T07:19:58.017Z,6.4
2023-02-12T07:29:59.551Z,6.4
2023-02-12T07:40:01.760Z,6.4
2023-02-12T07:50:02.860Z,6.6
2023-02-12T08:00:04.009Z,6.7
2023-02-12T08:10:05.716Z,6.8
2023-02-12T08:20:06.927Z,6.8
2023-02-12T08:30:08.279Z,6.9
2023-02-12T08:40:09.423Z,7
2023-02-12T08:50:10.977Z,7.1
2023-02-12T09:00:12.789Z,7.1
2023-02-12T09:10:14.075Z,7.2
2023-02-12T09:20:15.185Z,7.3
2023-02-12T09:30:16.967Z,7.4
2023-02-12T09:40:18.548Z,7.5
2023-02-12T09:50:20.160Z,7.6
2023-02-12T10:00:21.390Z,7.7
2023-02-12T10:10:23.293Z,7.8
2023-02-12T10:20:25.243Z,7.9
2023-02-12T10:30:26.742Z,8.1
2023-02-12T10:33:05.122Z,8.1
2023-02-12T10:40:37.608Z,8.3
2023-02-12T10:50:39.537Z,8.5
2023-02-12T11:00:41.100Z,8.5
2023-02-12T11:10:42.196Z,8.5
2023-02-12T11:20:43.292Z,8.5
2023-02-12T11:30:44.897Z,8.5
2023-02-12T11:40:46.031Z,8.5
2023-02-12T11:50:47.600Z,8.6
2023-02-12T12:00:48.886Z,8.6
2023-02-12T12:10:49.984Z,8.6
2023-02-12T12:20:51.860Z,8.6
2023-02-12T12:30:53.765Z,8.6
2023-02-12T12:40:55.365Z,8.7
2023-02-12T12:50:57.319Z,8.7
2023-02-12T13:00:58.536Z,8.7
2023-02-12T13:10:59.909Z,8.6
2023-02-12T13:21:01.192Z,8.6
2023-02-12T13:31:03.670Z,8.6
2023-02-12T13:41:04.404Z,8.6
2023-02-12T13:51:06.070Z,8.6
2023-02-12T14:01:08.079Z,8.7
2023-02-12T14:11:09.453Z,8.6
2023-02-12T14:21:11.399Z,8.6
2023-02-12T14:31:12.747Z,8.6
2023-02-12T14:41:14.617Z,8.6
2023-02-12T14:51:16.110Z,8.6
2023-02-12T15:01:17.418Z,8.6
2023-02-12T15:11:19.349Z,8.6
2023-02-12T15:21:21.009Z,8.6
2023-02-12T15:31:22.080Z,8.6
2023-02-12T15:41:23.859Z,8.6
2023-02-12T15:51:25.522Z,8.5
2023-02-12T16:01:27.374Z,8.5
2023-02-12T16:11:29.016Z,8.4
2023-02-12T16:21:30.081Z,8.3
2023-02-12T16:31:31.773Z,8.3
2023-02-12T16:41:33.079Z,8.3
2023-02-12T16:51:34.827Z,8.2
2023-02-12T17:01:36.128Z,8.2
2023-02-12T17:11:38.054Z,8.2
2023-02-12T17:21:39.853Z,8.1
2023-02-12T17:31:41.626Z,8.1
2023-02-12T17:41:43.432Z,8.1
2023-02-12T17:51:44.844Z,8.1
2023-02-12T18:01:46.174Z,8
2023-02-12T18:11:47.568Z,8
2023-02-12T18:21:49.231Z,8
2023-02-12T18:31:50.755Z,8
2023-02-12T18:41:52.548Z,7.9
2023-02-12T19:01:55.735Z,7.9
2023-02-12T19:11:57.505Z,7.8
2023-02-12T19:42:02.931Z,7.8
2023-02-12T19:52:04.050Z,7.9
2023-02-12T20:12:06.898Z,7.8
2023-02-12T20:22:08.456Z,7.7
2023-02-12T20:32:09.960Z,7.7
2023-02-12T20:42:11.263Z,7.6
2023-02-12T20:52:12.463Z,7.6
2023-02-12T21:02:14.229Z,7.6
2023-02-12T21:12:16.032Z,7.6
2023-02-12T21:22:17.959Z,7.6
2023-02-12T21:32:19.135Z,7.6
2023-02-12T21:42:20.237Z,7.5
2023-02-12T21:52:21.398Z,7.5
2023-02-12T22:02:22.872Z,7.5
2023-02-12T22:22:26.090Z,7.5
2023-02-12T22:32:27.596Z,7.5
2023-02-12T22:42:28.877Z,7.5
2023-02-12T22:52:30.254Z,7.4
2023-02-12T23:02:31.819Z,7.4
2023-02-12T23:12:33.359Z,7.4
2023-02-12T23:22:34.566Z,7.3
2023-02-12T23:32:35.785Z,7.3
2023-02-12T23:42:37.241Z,7.3
2023-02-12T23:52:38.431Z,7.2
